createdAt,value
2022-11-13T00:02:06.589Z,5.90
2022-11-13T00:04:33.520Z,5.70
2022-11-13T00:07:00.402Z,5.60
2022-11-13T00:09:27.219Z,5.60
2022-11-13T00:11:54.072Z,5.50
2022-11-13T00:14:20.958Z,5.50
2022-11-13T00:16:47.810Z,5.50
2022-11-13T00:19:14.753Z,5.60
2022-11-13T00:21:41.699Z,5.60
2022-11-13T00:24:08.518Z,5.70
2022-11-13T00:26:35.418Z,5.60
2022-11-13T00:29:02.928Z,5.60
2022-11-13T00:31:29.886Z,5.50
2022-11-13T00:36:44.969Z,5.40
2022-11-13T00:39:11.766Z,5.40
2022-11-13T00:41:38.598Z,5.30
2022-11-13T00:44:05.497Z,5.30
2022-11-13T00:46:32.344Z,5.30
2022-11-13T00:48:59.157Z,5.30
2022-11-13T00:51:26.023Z,5.30
2022-11-13T00:53:52.870Z,5.30
2022-11-13T00:56:19.710Z,5.20
2022-11-13T00:58:46.660Z,5.20
2022-11-13T01:01:15.049Z,5.20
2022-11-13T01:03:42.194Z,5.10
2022-11-13T01:06:13.595Z,5.00
2022-11-13T01:08:40.649Z,5.10
2022-11-13T01:11:08.788Z,5.10
2022-11-13T01:13:35.624Z,5.10
2022-11-13T01:16:05.231Z,5.10
2022-11-13T01:18:32.031Z,5.20
2022-11-13T01:21:02.742Z,5.10
2022-11-13T01:23:29.563Z,5.10
2022-11-13T01:26:03.833Z,5.10
2022-11-13T01:28:30.844Z,5.10
2022-11-13T01:30:57.889Z,5.10
2022-11-13T01:33:24.665Z,5.00
2022-11-13T01:35:51.536Z,4.90
2022-11-13T01:38:18.450Z,5.00
2022-11-13T01:40:46.427Z,5.10
2022-11-13T01:43:23.604Z,5.00
2022-11-13T01:45:59.624Z,5.00
2022-11-13T01:48:29.309Z,5.00
2022-11-13T01:50:56.525Z,5.00
2022-11-13T01:53:23.461Z,5.00
2022-11-13T01:55:50.448Z,5.00
2022-11-13T01:58:17.362Z,5.00
2022-11-13T02:00:44.304Z,5.00
2022-11-13T02:03:11.646Z,5.00
2022-11-13T02:05:38.468Z,5.00
2022-11-13T02:08:05.310Z,5.00
2022-11-13T02:10:32.219Z,5.00
2022-11-13T02:12:59.148Z,4.90
2022-11-13T02:15:27.047Z,4.90
2022-11-13T02:17:58.241Z,4.90
2022-11-13T02:20:35.496Z,4.90
2022-11-13T02:23:14.606Z,4.90
2022-11-13T02:25:42.111Z,4.90
2022-11-13T02:28:08.943Z,4.90
2022-11-13T02:30:36.029Z,4.90
2022-11-13T02:33:02.936Z,5.00
2022-11-13T02:35:31.109Z,5.00
2022-11-13T02:38:00.117Z,5.00
2022-11-13T02:40:27.267Z,5.00
2022-11-13T02:42:54.070Z,5.10
2022-11-13T02:45:20.911Z,5.10
2022-11-13T02:47:47.730Z,5.00
2022-11-13T02:50:14.587Z,5.10
2022-11-13T02:52:41.553Z,5.10
2022-11-13T02:55:09.053Z,5.00
2022-11-13T02:57:36.099Z,5.00
2022-11-13T03:00:06.031Z,5.10
2022-11-13T03:02:36.063Z,5.10
2022-11-13T03:05:12.039Z,5.10
2022-11-13T03:07:40.405Z,5.20
2022-11-13T03:10:07.855Z,5.10
2022-11-13T03:12:34.693Z,5.10
2022-11-13T03:15:01.647Z,5.20
2022-11-13T03:17:31.225Z,5.10
2022-11-13T03:19:58.055Z,5.10
2022-11-13T03:22:25.136Z,5.00
2022-11-13T03:24:52.084Z,5.20
2022-11-13T03:27:19.171Z,5.20
2022-11-13T03:29:46.023Z,5.10
2022-11-13T03:32:12.921Z,5.10
2022-11-13T03:34:39.804Z,5.20
2022-11-13T03:37:06.676Z,5.20
2022-11-13T03:39:33.520Z,5.20
2022-11-13T03:42:00.299Z,5.30
2022-11-13T03:44:27.110Z,5.20
2022-11-13T03:46:53.915Z,5.20
2022-11-13T03:49:20.740Z,5.30
2022-11-13T03:51:47.687Z,5.20
2022-11-13T03:54:14.743Z,5.20
2022-11-13T03:56:41.687Z,5.10
2022-11-13T03:59:08.784Z,5.10
2022-11-13T04:01:35.670Z,5.10
2022-11-13T04:04:02.533Z,5.10
2022-11-13T04:06:29.354Z,5.10
2022-11-13T04:08:56.209Z,5.10
2022-11-13T04:11:23.314Z,5.10
2022-11-13T04:13:50.406Z,5.20
2022-11-13T04:16:17.337Z,5.30
2022-11-13T04:18:44.289Z,5.30
2022-11-13T04:21:11.158Z,5.40
2022-11-13T04:23:38.042Z,5.40
2022-11-13T04:26:05.085Z,5.40
2022-11-13T04:28:32.188Z,5.40
2022-11-13T04:30:59.205Z,5.50
2022-11-13T04:33:26.023Z,5.60
2022-11-13T04:35:52.962Z,5.60
2022-11-13T04:38:19.780Z,5.50
2022-11-13T04:40:49.492Z,5.50
2022-11-13T04:43:16.339Z,5.50
2022-11-13T04:45:43.239Z,5.50
2022-11-13T04:48:10.047Z,5.50
2022-11-13T04:50:36.880Z,5.60
2022-11-13T04:53:03.768Z,5.60
2022-11-13T04:55:30.624Z,5.70
2022-11-13T04:57:57.485Z,5.70
2022-11-13T05:00:24.322Z,5.70
2022-11-13T05:02:51.131Z,5.70
2022-11-13T05:05:18.033Z,5.70
2022-11-13T05:07:44.857Z,5.70
2022-11-13T05:10:11.778Z,5.80
2022-11-13T05:12:38.711Z,5.80
2022-11-13T05:15:05.888Z,5.80
2022-11-13T05:17:32.664Z,5.70
2022-11-13T05:19:59.675Z,5.80
2022-11-13T05:22:26.543Z,5.80
2022-11-13T05:24:53.401Z,5.80
2022-11-13T05:27:20.225Z,5.80
2022-11-13T05:29:47.060Z,5.70
2022-11-13T05:32:14.027Z,5.80
2022-11-13T05:34:40.844Z,5.80
2022-11-13T05:37:07.793Z,5.80
2022-11-13T05:39:34.755Z,5.80
2022-11-13T05:42:01.667Z,5.80
2022-11-13T05:44:28.789Z,5.80
2022-11-13T05:46:55.651Z,5.90
2022-11-13T05:49:22.432Z,5.80
2022-11-13T05:51:49.393Z,5.70
2022-11-13T05:54:16.269Z,5.70
2022-11-13T05:56:43.101Z,5.80
2022-11-13T05:59:09.896Z,5.70
2022-11-13T06:01:38.247Z,5.70
2022-11-13T06:04:06.030Z,5.80
2022-11-13T06:06:33.396Z,5.80
2022-11-13T06:09:01.298Z,5.70
2022-11-13T06:11:29.366Z,5.70
2022-11-13T06:13:56.609Z,5.70
2022-11-13T06:16:28.032Z,5.70
2022-11-13T06:18:59.098Z,5.50
2022-11-13T06:21:27.469Z,5.50
2022-11-13T06:23:54.289Z,5.50
2022-11-13T06:26:22.561Z,5.50
2022-11-13T06:28:49.474Z,5.50
2022-11-13T06:31:17.655Z,5.60
2022-11-13T06:33:44.624Z,5.50
2022-11-13T06:36:13.228Z,5.50
2022-11-13T06:38:40.780Z,5.40
2022-11-13T06:41:08.599Z,5.40
2022-11-13T06:43:35.544Z,5.30
2022-11-13T06:46:06.526Z,5.30
2022-11-13T06:48:34.036Z,5.30
2022-11-13T06:51:02.818Z,5.20
2022-11-13T06:53:30.089Z,5.20
2022-11-13T06:55:57.260Z,5.20
2022-11-13T06:58:24.109Z,5.10
2022-11-13T07:00:51.206Z,5.10
2022-11-13T07:03:22.505Z,5.10
2022-11-13T07:05:49.547Z,5.10
2022-11-13T07:08:16.880Z,5.10
2022-11-13T07:10:44.130Z,5.10
2022-11-13T07:13:10.961Z,5.00
2022-11-13T07:15:38.845Z,5.00
2022-11-13T07:18:06.361Z,5.00
2022-11-13T07:20:33.603Z,5.00
2022-11-13T07:23:01.609Z,5.00
2022-11-13T07:25:28.964Z,5.00
2022-11-13T07:27:55.773Z,5.00
2022-11-13T07:30:22.811Z,4.90
2022-11-13T07:32:49.849Z,4.90
2022-11-13T07:35:17.047Z,4.90
2022-11-13T07:37:44.008Z,5.00
2022-11-13T07:40:11.480Z,5.00
2022-11-13T07:42:38.764Z,5.00
2022-11-13T07:45:05.843Z,4.90
2022-11-13T07:47:32.667Z,5.00
2022-11-13T07:50:05.502Z,5.10
2022-11-13T07:52:36.762Z,5.10
2022-11-13T07:55:03.643Z,5.20
2022-11-13T07:57:30.490Z,5.20
2022-11-13T07:59:57.338Z,5.20
2022-11-13T08:02:26.780Z,5.30
2022-11-13T08:04:53.793Z,5.30
2022-11-13T08:07:20.806Z,5.30
2022-11-13T08:09:47.731Z,5.40
2022-11-13T08:12:14.830Z,5.40
2022-11-13T08:14:41.723Z,5.40
2022-11-13T08:17:08.682Z,5.30
2022-11-13T08:19:35.482Z,5.40
2022-11-13T08:22:02.274Z,5.40
2022-11-13T08:24:29.080Z,5.40
2022-11-13T08:26:55.962Z,5.40
2022-11-13T08:29:22.912Z,5.40
2022-11-13T08:31:49.874Z,5.50
2022-11-13T08:34:16.659Z,5.40
2022-11-13T08:36:43.563Z,5.40
2022-11-13T08:39:10.496Z,5.30
2022-11-13T08:41:37.313Z,5.30
2022-11-13T08:44:04.244Z,5.40
2022-11-13T08:46:31.426Z,5.30
2022-11-13T08:48:58.309Z,5.30
2022-11-13T08:51:25.168Z,5.30
2022-11-13T08:53:52.011Z,5.40
2022-11-13T08:56:20.292Z,5.30
2022-11-13T08:58:47.157Z,5.30
2022-11-13T09:01:14.064Z,5.30
2022-11-13T09:03:40.960Z,5.30
2022-11-13T09:06:08.046Z,5.20
2022-11-13T09:08:35.009Z,5.20
2022-11-13T09:11:05.562Z,5.30
2022-11-13T09:13:33.133Z,5.30
2022-11-13T09:16:00.439Z,5.30
2022-11-13T09:18:27.994Z,5.20
2022-11-13T09:20:55.774Z,5.30
2022-11-13T09:23:22.576Z,5.30
2022-11-13T09:25:49.443Z,5.40
2022-11-13T09:28:16.374Z,5.40
2022-11-13T09:30:43.250Z,5.50
2022-11-13T09:33:10.502Z,5.50
2022-11-13T09:35:37.358Z,5.50
2022-11-13T09:38:11.269Z,5.60
2022-11-13T09:40:38.538Z,5.70
2022-11-13T09:43:09.985Z,5.70
2022-11-13T09:45:37.041Z,5.80
2022-11-13T09:48:20.736Z,5.80
2022-11-13T09:50:47.554Z,5.80
2022-11-13T09:53:14.705Z,5.90
2022-11-13T09:55:45.033Z,5.80
2022-11-13T09:58:17.817Z,5.80
2022-11-13T10:00:45.165Z,5.90
2022-11-13T10:03:59.088Z,5.80
2022-11-13T10:06:23.566Z,5.90
2022-11-13T10:08:50.329Z,5.90
2022-11-13T10:11:20.250Z,5.90
2022-11-13T10:13:48.728Z,5.90
2022-11-13T10:16:15.538Z,6.00
2022-11-13T10:18:43.240Z,6.00
2022-11-13T10:21:45.353Z,6.00
2022-11-13T10:24:32.372Z,6.20
2022-11-13T10:27:00.088Z,6.20
2022-11-13T10:29:28.724Z,6.20
2022-11-13T10:31:55.710Z,6.20
2022-11-13T10:34:22.654Z,6.20
2022-11-13T10:36:57.132Z,6.20
2022-11-13T10:39:23.996Z,6.30
2022-11-13T10:41:51.938Z,6.30
2022-11-13T10:44:21.099Z,6.20
2022-11-13T10:46:48.035Z,6.20
2022-11-13T10:49:22.156Z,6.10
2022-11-13T10:51:58.891Z,6.20
2022-11-13T10:54:27.419Z,6.30
2022-11-13T10:56:58.560Z,6.30
2022-11-13T10:59:26.558Z,6.40
2022-11-13T11:01:53.482Z,6.40
2022-11-13T11:04:24.285Z,6.40
2022-11-13T11:07:22.107Z,6.40
2022-11-13T11:09:40.441Z,6.30
2022-11-13T11:12:16.310Z,6.30
2022-11-13T11:14:55.403Z,6.30
2022-11-13T11:17:28.315Z,6.40
2022-11-13T11:20:21.408Z,6.40
2022-11-13T11:22:51.161Z,6.50
2022-11-13T11:25:27.383Z,6.40
2022-11-13T11:28:02.413Z,6.40
2022-11-13T11:30:32.023Z,6.40
2022-11-13T11:33:11.159Z,6.40
2022-11-13T11:35:46.114Z,6.40
2022-11-13T11:38:21.113Z,6.40
2022-11-13T11:40:53.709Z,6.40
2022-11-13T11:43:24.842Z,6.30
2022-11-13T11:45:51.657Z,6.40
2022-11-13T11:48:21.430Z,6.40
2022-11-13T11:50:48.229Z,6.40
2022-11-13T11:53:18.527Z,6.50
2022-11-13T11:55:57.557Z,6.50
2022-11-13T11:58:35.988Z,6.50
2022-11-13T12:01:11.299Z,6.50
2022-11-13T12:03:41.117Z,6.50
2022-11-13T12:06:07.918Z,6.40
2022-11-13T12:08:54.932Z,6.50
2022-11-13T12:11:25.046Z,6.50
2022-11-13T12:13:51.828Z,6.50
2022-11-13T12:16:30.814Z,6.50
2022-11-13T12:19:03.768Z,6.50
2022-11-13T12:21:41.635Z,6.50
2022-11-13T12:24:08.448Z,6.60
2022-11-13T12:26:46.561Z,6.60
2022-11-13T12:29:16.534Z,6.60
2022-11-13T12:31:46.079Z,6.60
2022-11-13T12:34:18.788Z,6.60
2022-11-13T12:36:46.236Z,6.50
2022-11-13T12:39:21.494Z,6.60
2022-11-13T12:41:53.425Z,6.60
2022-11-13T12:44:24.006Z,6.50
2022-11-13T12:46:52.465Z,6.50
2022-11-13T12:49:22.367Z,6.50
2022-11-13T12:51:56.903Z,6.50
2022-11-13T12:54:30.901Z,6.50
2022-11-13T12:57:12.684Z,6.60
2022-11-13T12:59:41.289Z,6.60
2022-11-13T13:02:08.083Z,6.50
2022-11-13T13:04:43.352Z,6.50
2022-11-13T13:07:25.514Z,6.50
2022-11-13T13:10:07.414Z,6.50
2022-11-13T13:12:55.083Z,6.50
2022-11-13T13:15:21.984Z,6.50
2022-11-13T13:17:48.864Z,6.40
2022-11-13T13:20:15.642Z,6.40
2022-11-13T13:22:42.524Z,6.50
2022-11-13T13:25:27.053Z,6.50
2022-11-13T13:27:57.973Z,6.60
2022-11-13T13:30:26.467Z,6.50
2022-11-13T13:32:59.489Z,6.60
2022-11-13T13:35:32.407Z,6.60
2022-11-13T13:37:59.194Z,6.70
2022-11-13T13:40:25.989Z,6.70
2022-11-13T13:43:04.667Z,6.80
2022-11-13T13:45:31.608Z,6.70
2022-11-13T13:47:58.911Z,6.70
2022-11-13T13:50:27.841Z,6.80
2022-11-13T13:52:56.216Z,6.90
2022-11-13T13:55:27.699Z,7.00
2022-11-13T13:57:54.738Z,7.10
2022-11-13T14:00:21.672Z,6.90
2022-11-13T14:02:49.828Z,6.90
2022-11-13T14:05:33.190Z,7.00
2022-11-13T14:08:00.908Z,7.00
2022-11-13T14:10:28.566Z,7.00
2022-11-13T14:12:56.057Z,7.00
2022-11-13T14:15:22.816Z,7.00
2022-11-13T14:17:50.059Z,7.00
2022-11-13T14:20:17.312Z,7.00
2022-11-13T14:22:44.701Z,6.90
2022-11-13T14:25:29.822Z,6.90
2022-11-13T14:27:56.690Z,7.00
2022-11-13T14:30:26.833Z,7.10
2022-11-13T14:32:54.921Z,7.10
2022-11-13T14:35:24.638Z,7.10
2022-11-13T14:37:53.319Z,7.00
2022-11-13T14:40:22.295Z,7.00
2022-11-13T14:42:57.777Z,6.90
2022-11-13T14:45:26.077Z,6.80
2022-11-13T14:47:59.067Z,6.90
2022-11-13T14:50:28.978Z,6.80
2022-11-13T14:52:59.765Z,6.80
2022-11-13T14:55:31.106Z,6.80
2022-11-13T14:57:58.040Z,6.80
2022-11-13T15:00:42.809Z,6.70
2022-11-13T15:03:09.697Z,6.70
2022-11-13T15:05:36.678Z,6.70
2022-11-13T15:08:03.636Z,6.70
2022-11-13T15:10:30.853Z,6.60
2022-11-13T15:12:57.725Z,6.60
2022-11-13T15:15:27.186Z,6.60
2022-11-13T15:17:54.138Z,6.70
2022-11-13T15:20:21.009Z,6.60
2022-11-13T15:22:47.940Z,6.70
2022-11-13T15:25:15.953Z,6.70
2022-11-13T15:27:43.593Z,6.70
2022-11-13T15:30:11.109Z,6.60
2022-11-13T15:32:38.029Z,6.60
2022-11-13T15:35:05.495Z,6.60
2022-11-13T15:37:32.315Z,6.60
2022-11-13T15:39:59.412Z,6.60
2022-11-13T15:42:31.923Z,6.60
2022-11-13T15:44:58.848Z,6.50
2022-11-13T15:47:31.706Z,6.50
2022-11-13T15:50:15.506Z,6.60
2022-11-13T15:52:47.332Z,6.70
2022-11-13T15:55:21.245Z,6.70
2022-11-13T15:57:48.252Z,6.70
2022-11-13T16:00:15.735Z,6.70
2022-11-13T16:02:42.742Z,6.70
2022-11-13T16:05:10.247Z,6.70
2022-11-13T16:07:41.180Z,6.60
2022-11-13T16:10:12.107Z,6.70
2022-11-13T16:12:39.000Z,6.70
2022-11-13T16:15:06.110Z,6.80
2022-11-13T16:17:37.378Z,6.70
2022-11-13T16:20:07.525Z,6.80
2022-11-13T16:22:34.393Z,6.90
2022-11-13T16:25:01.217Z,6.90
2022-11-13T16:27:29.446Z,6.90
2022-11-13T16:29:56.327Z,6.90
2022-11-13T16:32:23.504Z,7.00
2022-11-13T16:34:50.354Z,6.90
2022-11-13T16:37:18.341Z,6.90
2022-11-13T16:39:45.647Z,6.90
2022-11-13T16:42:13.365Z,6.90
2022-11-13T16:44:40.987Z,6.90
2022-11-13T16:47:17.788Z,6.90
2022-11-13T16:49:44.792Z,6.80
2022-11-13T16:52:11.622Z,6.80
2022-11-13T16:54:38.494Z,6.80
2022-11-13T16:57:05.285Z,6.90
2022-11-13T16:59:33.119Z,6.90
2022-11-13T17:02:00.089Z,6.90
2022-11-13T17:04:26.934Z,6.90
2022-11-13T17:06:56.804Z,6.90
2022-11-13T17:09:24.760Z,6.90
2022-11-13T17:11:51.574Z,6.90
2022-11-13T17:14:18.423Z,7.00
2022-11-13T17:16:45.362Z,7.00
2022-11-13T17:19:12.701Z,7.00
2022-11-13T17:21:43.913Z,6.90
2022-11-13T17:24:11.317Z,7.00
2022-11-13T17:26:38.127Z,7.00
2022-11-13T17:29:06.444Z,7.00
2022-11-13T17:31:33.286Z,7.00
2022-11-13T17:34:00.116Z,7.00
2022-11-13T17:36:26.992Z,7.00
2022-11-13T17:38:53.785Z,7.00
2022-11-13T17:41:20.711Z,7.00
2022-11-13T17:43:47.507Z,7.00
2022-11-13T17:46:17.951Z,7.00
2022-11-13T17:48:44.995Z,7.00
2022-11-13T17:51:12.861Z,7.00
2022-11-13T17:53:39.771Z,7.00
2022-11-13T17:56:08.247Z,7.10
2022-11-13T17:58:41.568Z,7.10
2022-11-13T18:01:11.150Z,7.10
2022-11-13T18:03:38.349Z,7.00
2022-11-13T18:06:13.492Z,7.10
2022-11-13T18:08:41.386Z,7.10
2022-11-13T18:11:16.215Z,7.00
2022-11-13T18:13:43.701Z,7.00
2022-11-13T18:16:13.045Z,7.10
2022-11-13T18:18:40.080Z,7.10
2022-11-13T18:21:23.192Z,7.10
2022-11-13T18:23:56.342Z,7.00
2022-11-13T18:26:23.743Z,7.10
2022-11-13T18:28:50.525Z,7.10
2022-11-13T18:31:18.288Z,7.10
2022-11-13T18:33:45.349Z,7.10
2022-11-13T18:36:12.276Z,7.10
2022-11-13T18:38:39.158Z,7.10
2022-11-13T18:41:09.560Z,7.00
2022-11-13T18:43:36.706Z,7.00
2022-11-13T18:46:05.350Z,7.00
2022-11-13T18:48:33.016Z,7.00
2022-11-13T18:51:05.580Z,7.00
2022-11-13T18:53:32.956Z,7.00
2022-11-13T18:56:04.179Z,7.00
2022-11-13T18:58:31.161Z,7.00
2022-11-13T19:01:08.383Z,7.00
2022-11-13T19:03:35.276Z,6.90
2022-11-13T19:06:02.142Z,6.90
2022-11-13T19:08:29.271Z,7.00
2022-11-13T19:11:02.512Z,6.90
2022-11-13T19:13:29.390Z,6.80
2022-11-13T19:15:56.589Z,6.70
2022-11-13T19:18:23.482Z,6.70
2022-11-13T19:20:50.283Z,6.80
2022-11-13T19:23:17.188Z,6.70
2022-11-13T19:25:44.014Z,6.70
2022-11-13T19:28:10.878Z,6.80
2022-11-13T19:30:37.700Z,6.80
2022-11-13T19:33:04.546Z,6.60
2022-11-13T19:35:31.420Z,6.70
2022-11-13T19:37:58.344Z,6.70
2022-11-13T19:40:25.220Z,6.70
2022-11-13T19:42:52.821Z,6.70
2022-11-13T19:45:19.679Z,6.70
2022-11-13T19:47:46.558Z,6.70
2022-11-13T19:50:13.376Z,6.70
2022-11-13T19:52:40.150Z,6.70
2022-11-13T19:55:07.108Z,6.70
2022-11-13T19:57:33.911Z,6.70
2022-11-13T20:00:00.765Z,6.80
2022-11-13T20:02:27.574Z,6.80
2022-11-13T20:04:54.376Z,6.80
2022-11-13T20:07:21.212Z,6.80
2022-11-13T20:09:48.112Z,6.90
2022-11-13T20:12:14.931Z,6.90
2022-11-13T20:14:41.768Z,7.00
2022-11-13T20:17:08.928Z,7.00
2022-11-13T20:19:35.731Z,7.00
2022-11-13T20:22:02.608Z,6.90
2022-11-13T20:24:29.476Z,7.00
2022-11-13T20:26:56.432Z,7.00
2022-11-13T20:29:23.279Z,7.00
2022-11-13T20:31:52.057Z,7.00
2022-11-13T20:34:18.928Z,7.00
2022-11-13T20:36:45.722Z,7.10
2022-11-13T20:39:12.559Z,7.10
2022-11-13T20:41:39.658Z,7.10
2022-11-13T20:44:06.628Z,7.10
2022-11-13T20:46:33.554Z,7.10
2022-11-13T20:49:01.445Z,7.10
2022-11-13T20:51:28.734Z,7.10
2022-11-13T20:53:55.746Z,7.20
2022-11-13T20:56:23.627Z,7.20
2022-11-13T20:58:50.495Z,7.20
2022-11-13T21:01:18.853Z,7.20
2022-11-13T21:03:46.250Z,7.30
2022-11-13T21:06:16.307Z,7.30
2022-11-13T21:08:43.314Z,7.30
2022-11-13T21:11:13.236Z,7.20
2022-11-13T21:13:40.271Z,7.30
2022-11-13T21:16:08.233Z,7.30
2022-11-13T21:18:35.364Z,7.30
2022-11-13T21:21:06.147Z,7.30
2022-11-13T21:23:33.007Z,7.40
2022-11-13T21:26:00.506Z,7.40
2022-11-13T21:28:32.256Z,7.40
2022-11-13T21:31:00.938Z,7.40
2022-11-13T21:33:27.752Z,7.40
2022-11-13T21:35:54.596Z,7.40
2022-11-13T21:38:21.364Z,7.40
2022-11-13T21:41:08.155Z,7.50
2022-11-13T21:43:34.916Z,7.50
2022-11-13T21:46:05.312Z,7.50
2022-11-13T21:48:33.539Z,7.50
2022-11-13T21:51:00.529Z,7.50
2022-11-13T21:53:27.287Z,7.50
2022-11-13T21:55:54.134Z,7.50
2022-11-13T21:58:28.630Z,7.50
2022-11-13T22:00:55.599Z,7.50
2022-11-13T22:03:22.483Z,7.60
2022-11-13T22:05:49.289Z,7.50
2022-11-13T22:08:16.169Z,7.50
2022-11-13T22:10:42.979Z,7.60
2022-11-13T22:13:09.788Z,7.60
2022-11-13T22:15:36.578Z,7.60
2022-11-13T22:18:03.433Z,7.60
2022-11-13T22:20:30.396Z,7.60
2022-11-13T22:22:57.290Z,7.60
2022-11-13T22:25:24.107Z,7.70
2022-11-13T22:27:50.877Z,7.70
2022-11-13T22:30:17.679Z,7.70
2022-11-13T22:32:44.657Z,7.70
2022-11-13T22:35:11.470Z,7.70
2022-11-13T22:37:38.266Z,7.80
2022-11-13T22:40:05.295Z,7.90
2022-11-13T22:42:32.126Z,7.80
2022-11-13T22:44:58.966Z,7.90
2022-11-13T22:47:26.150Z,7.90
2022-11-13T22:49:52.904Z,7.90
2022-11-13T22:52:19.686Z,7.80
2022-11-13T22:54:46.444Z,7.90
2022-11-13T22:57:13.274Z,7.90
2022-11-13T22:59:42.221Z,7.90
2022-11-13T23:02:09.006Z,7.80
2022-11-13T23:04:36.025Z,7.80
2022-11-13T23:07:02.896Z,7.90
2022-11-13T23:09:29.776Z,7.80
2022-11-13T23:11:56.620Z,7.90
2022-11-13T23:14:23.435Z,7.90
2022-11-13T23:16:50.216Z,7.80
2022-11-13T23:19:17.047Z,7.90
2022-11-13T23:21:45.617Z,7.90
2022-11-13T23:24:12.440Z,7.90
2022-11-13T23:26:39.682Z,7.90
2022-11-13T23:29:06.493Z,7.90
2022-11-13T23:31:33.297Z,7.80
2022-11-13T23:34:00.138Z,7.80
2022-11-13T23:36:27.614Z,7.80
2022-11-13T23:38:54.502Z,7.90
2022-11-13T23:41:21.295Z,7.80
2022-11-13T23:44:07.592Z,7.80
2022-11-13T23:46:34.972Z,7.90
2022-11-13T23:49:01.835Z,7.80
2022-11-13T23:51:28.615Z,7.80
2022-11-13T23:53:55.405Z,7.80
2022-11-13T23:56:22.214Z,7.80
2022-11-13T23:58:51.321Z,7.70
